sensor_id;sensor_type;location;lat;lon;timestamp;P1;durP1;ratioP1;P2;durP2;ratioP2
11052;SDS011;55230;42.602;23.470;2024-03-25T00:01:13;0.73;;;0.73;;
11052;SDS011;55230;42.602;23.470;2024-03-25T00:03:38;0.35;;;0.30;;
11052;SDS011;55230;42.602;23.470;2024-03-25T00:06:03;0.50;;;0.50;;
11052;SDS011;55230;42.602;23.470;2024-03-25T00:08:29;0.60;;;0.60;;
11052;SDS011;55230;42.602;23.470;2024-03-25T00:10:55;0.80;;;0.50;;
11052;SDS011;55230;42.602;23.470;2024-03-25T00:13:21;0.15;;;0.15;;
11052;SDS011;55230;42.602;23.470;2024-03-25T00:15:46;0.43;;;0.43;;
11052;SDS011;55230;42.602;23.470;2024-03-25T00:18:12;1.45;;;0.50;;
11052;SDS011;55230;42.602;23.470;2024-03-25T00:20:37;0.20;;;0.20;;
11052;SDS011;55230;42.602;23.470;2024-03-25T00:23:03;0.30;;;0.30;;
11052;SDS011;55230;42.602;23.470;2024-03-25T00:25:29;0.25;;;0.25;;
11052;SDS011;55230;42.602;23.470;2024-03-25T00:27:54;0.32;;;0.32;;
11052;SDS011;55230;42.602;23.470;2024-03-25T00:30:19;0.22;;;0.22;;
11052;SDS011;55230;42.602;23.470;2024-03-25T00:32:45;0.93;;;0.90;;
11052;SDS011;55230;42.602;23.470;2024-03-25T00:35:11;0.20;;;0.20;;
11052;SDS011;55230;42.602;23.470;2024-03-25T00:37:37;0.50;;;0.50;;
11052;SDS011;55230;42.602;23.470;2024-03-25T00:40:02;0.32;;;0.32;;
11052;SDS011;55230;42.602;23.470;2024-03-25T00:42:29;0.20;;;0.20;;
11052;SDS011;55230;42.602;23.470;2024-03-25T00:44:55;0.45;;;0.45;;
11052;SDS011;55230;42.602;23.470;2024-03-25T00:47:20;0.40;;;0.20;;
11052;SDS011;55230;42.602;23.470;2024-03-25T00:49:46;0.50;;;0.50;;
11052;SDS011;55230;42.602;23.470;2024-03-25T00:52:11;0.10;;;0.10;;
11052;SDS011;55230;42.602;23.470;2024-03-25T00:54:36;0.25;;;0.25;;
11052;SDS011;55230;42.602;23.470;2024-03-25T00:57:02;0.22;;;0.22;;
11052;SDS011;55230;42.602;23.470;2024-03-25T00:59:27;0.22;;;0.22;;
11052;SDS011;55230;42.602;23.470;2024-03-25T01:01:53;0.20;;;0.20;;
11052;SDS011;55230;42.602;23.470;2024-03-25T01:04:18;0.10;;;0.03;;
11052;SDS011;55230;42.602;23.470;2024-03-25T01:06:43;0.22;;;0.22;;
11052;SDS011;55230;42.602;23.470;2024-03-25T01:09:09;0.40;;;0.25;;
11052;SDS011;55230;42.602;23.470;2024-03-25T01:11:35;0.35;;;0.35;;
11052;SDS011;55230;42.602;23.470;2024-03-25T01:14:00;0.10;;;0.10;;
11052;SDS011;55230;42.602;23.470;2024-03-25T01:16:26;0.25;;;0.25;;
11052;SDS011;55230;42.602;23.470;2024-03-25T01:18:51;0.25;;;0.25;;
11052;SDS011;55230;42.602;23.470;2024-03-25T01:21:17;0.25;;;0.25;;
11052;SDS011;55230;42.602;23.470;2024-03-25T01:23:42;0.25;;;0.25;;
11052;SDS011;55230;42.602;23.470;2024-03-25T01:26:08;0.13;;;0.13;;
11052;SDS011;55230;42.602;23.470;2024-03-25T01:28:33;0.28;;;0.28;;
11052;SDS011;55230;42.602;23.470;2024-03-25T01:30:59;1.95;;;0.30;;
11052;SDS011;55230;42.602;23.470;2024-03-25T01:33:25;0.22;;;0.22;;
11052;SDS011;55230;42.602;23.470;2024-03-25T01:35:51;0.40;;;0.28;;
11052;SDS011;55230;42.602;23.470;2024-03-25T01:38:16;0.30;;;0.30;;
11052;SDS011;55230;42.602;23.470;2024-03-25T01:40:41;0.60;;;0.60;;
11052;SDS011;55230;42.602;23.470;2024-03-25T01:43:07;0.35;;;0.35;;
11052;SDS011;55230;42.602;23.470;2024-03-25T01:45:33;0.63;;;0.30;;
11052;SDS011;55230;42.602;23.470;2024-03-25T01:48:04;0.38;;;0.38;;
11052;SDS011;55230;42.602;23.470;2024-03-25T01:50:36;0.60;;;0.60;;
11052;SDS011;55230;42.602;23.470;2024-03-25T01:55:30;2.03;;;1.92;;
11052;SDS011;55230;42.602;23.470;2024-03-25T01:57:59;1.40;;;1.30;;
11052;SDS011;55230;42.602;23.470;2024-03-25T02:00:25;0.80;;;0.80;;
11052;SDS011;55230;42.602;23.470;2024-03-25T02:02:52;0.28;;;0.20;;
11052;SDS011;55230;42.602;23.470;2024-03-25T02:05:18;0.65;;;0.65;;
11052;SDS011;55230;42.602;23.470;2024-03-25T02:07:44;0.45;;;0.45;;
11052;SDS011;55230;42.602;23.470;2024-03-25T02:10:11;0.50;;;0.50;;
11052;SDS011;55230;42.602;23.470;2024-03-25T02:12:40;0.32;;;0.28;;
11052;SDS011;55230;42.602;23.470;2024-03-25T02:15:07;0.50;;;0.50;;
11052;SDS011;55230;42.602;23.470;2024-03-25T02:17:33;0.30;;;0.30;;
11052;SDS011;55230;42.602;23.470;2024-03-25T02:19:59;0.43;;;0.43;;
11052;SDS011;55230;42.602;23.470;2024-03-25T02:22:25;0.30;;;0.22;;
11052;SDS011;55230;42.602;23.470;2024-03-25T02:24:52;1.00;;;0.60;;
11052;SDS011;55230;42.602;23.470;2024-03-25T02:27:18;0.50;;;0.50;;
11052;SDS011;55230;42.602;23.470;2024-03-25T02:29:44;0.32;;;0.32;;
11052;SDS011;55230;42.602;23.470;2024-03-25T02:32:10;0.50;;;0.47;;
11052;SDS011;55230;42.602;23.470;2024-03-25T02:34:39;2.30;;;1.30;;
11052;SDS011;55230;42.602;23.470;2024-03-25T02:37:08;0.40;;;0.40;;
11052;SDS011;55230;42.602;23.470;2024-03-25T02:39:34;0.50;;;0.50;;
11052;SDS011;55230;42.602;23.470;2024-03-25T02:42:01;0.50;;;0.50;;
11052;SDS011;55230;42.602;23.470;2024-03-25T02:44:26;0.43;;;0.43;;
11052;SDS011;55230;42.602;23.470;2024-03-25T02:46:52;0.40;;;0.40;;
11052;SDS011;55230;42.602;23.470;2024-03-25T02:49:18;0.82;;;0.68;;
11052;SDS011;55230;42.602;23.470;2024-03-25T02:51:43;0.45;;;0.45;;
11052;SDS011;55230;42.602;23.470;2024-03-25T02:54:08;0.55;;;0.55;;
11052;SDS011;55230;42.602;23.470;2024-03-25T02:56:34;0.43;;;0.43;;
11052;SDS011;55230;42.602;23.470;2024-03-25T02:59:00;0.30;;;0.30;;
11052;SDS011;55230;42.602;23.470;2024-03-25T03:01:26;0.40;;;0.40;;
11052;SDS011;55230;42.602;23.470;2024-03-25T03:03:51;0.57;;;0.57;;
11052;SDS011;55230;42.602;23.470;2024-03-25T03:06:17;0.30;;;0.30;;
11052;SDS011;55230;42.602;23.470;2024-03-25T03:08:43;0.93;;;0.63;;
11052;SDS011;55230;42.602;23.470;2024-03-25T03:11:09;0.52;;;0.52;;
11052;SDS011;55230;42.602;23.470;2024-03-25T03:13:34;0.60;;;0.40;;
11052;SDS011;55230;42.602;23.470;2024-03-25T03:16:00;0.50;;;0.50;;
11052;SDS011;55230;42.602;23.470;2024-03-25T03:18:25;1.00;;;1.00;;
11052;SDS011;55230;42.602;23.470;2024-03-25T03:20:50;0.32;;;0.32;;
11052;SDS011;55230;42.602;23.470;2024-03-25T03:23:16;4.82;;;0.70;;
11052;SDS011;55230;42.602;23.470;2024-03-25T03:25:42;0.50;;;0.50;;
11052;SDS011;55230;42.602;23.470;2024-03-25T03:28:07;0.50;;;0.50;;
11052;SDS011;55230;42.602;23.470;2024-03-25T03:30:33;0.40;;;0.30;;
11052;SDS011;55230;42.602;23.470;2024-03-25T03:32:58;0.75;;;0.75;;
11052;SDS011;55230;42.602;23.470;2024-03-25T03:35:24;0.75;;;0.73;;
11052;SDS011;55230;42.602;23.470;2024-03-25T03:37:49;0.50;;;0.50;;
11052;SDS011;55230;42.602;23.470;2024-03-25T03:40:15;1.20;;;1.10;;
11052;SDS011;55230;42.602;23.470;2024-03-25T03:42:40;1.40;;;1.30;;
11052;SDS011;55230;42.602;23.470;2024-03-25T03:45:06;1.45;;;1.35;;
11052;SDS011;55230;42.602;23.470;2024-03-25T03:47:32;1.50;;;1.40;;
11052;SDS011;55230;42.602;23.470;2024-03-25T03:49:57;1.23;;;1.13;;
11052;SDS011;55230;42.602;23.470;2024-03-25T03:52:23;1.08;;;0.98;;
11052;SDS011;55230;42.602;23.470;2024-03-25T03:54:48;1.33;;;1.23;;
11052;SDS011;55230;42.602;23.470;2024-03-25T03:57:13;3.78;;;1.13;;
11052;SDS011;55230;42.602;23.470;2024-03-25T03:59:39;3.08;;;1.58;;
11052;SDS011;55230;42.602;23.470;2024-03-25T04:02:04;1.67;;;1.05;;
11052;SDS011;55230;42.602;23.470;2024-03-25T04:04:30;2.58;;;1.70;;
11052;SDS011;55230;42.602;23.470;2024-03-25T04:06:55;2.30;;;1.13;;
11052;SDS011;55230;42.602;23.470;2024-03-25T04:09:21;1.05;;;0.93;;
11052;SDS011;55230;42.602;23.470;2024-03-25T04:11:48;1.83;;;1.73;;
11052;SDS011;55230;42.602;23.470;2024-03-25T04:14:14;1.42;;;1.33;;
11052;SDS011;55230;42.602;23.470;2024-03-25T04:16:40;1.48;;;1.27;;
11052;SDS011;55230;42.602;23.470;2024-03-25T04:19:05;1.70;;;1.30;;
11052;SDS011;55230;42.602;23.470;2024-03-25T04:21:30;3.03;;;2.63;;
11052;SDS011;55230;42.602;23.470;2024-03-25T04:23:56;2.30;;;2.08;;
11052;SDS011;55230;42.602;23.470;2024-03-25T04:26:21;2.03;;;1.90;;
11052;SDS011;55230;42.602;23.470;2024-03-25T04:28:46;2.78;;;2.17;;
11052;SDS011;55230;42.602;23.470;2024-03-25T04:31:12;3.03;;;2.33;;
11052;SDS011;55230;42.602;23.470;2024-03-25T04:33:38;3.08;;;2.72;;
11052;SDS011;55230;42.602;23.470;2024-03-25T04:36:03;2.08;;;1.88;;
11052;SDS011;55230;42.602;23.470;2024-03-25T04:38:29;3.22;;;2.58;;
11052;SDS011;55230;42.602;23.470;2024-03-25T04:40:54;3.60;;;3.22;;
11052;SDS011;55230;42.602;23.470;2024-03-25T04:43:19;2.95;;;2.20;;
11052;SDS011;55230;42.602;23.470;2024-03-25T04:45:45;3.42;;;2.35;;
11052;SDS011;55230;42.602;23.470;2024-03-25T04:48:11;4.47;;;3.17;;
11052;SDS011;55230;42.602;23.470;2024-03-25T04:50:36;3.22;;;2.72;;
11052;SDS011;55230;42.602;23.470;2024-03-25T04:53:02;5.47;;;4.25;;
11052;SDS011;55230;42.602;23.470;2024-03-25T04:55:27;3.67;;;2.95;;
11052;SDS011;55230;42.602;23.470;2024-03-25T04:57:53;9.15;;;5.32;;
11052;SDS011;55230;42.602;23.470;2024-03-25T05:00:19;5.22;;;4.28;;
11052;SDS011;55230;42.602;23.470;2024-03-25T05:02:44;5.65;;;4.18;;
11052;SDS011;55230;42.602;23.470;2024-03-25T05:31:21;6.38;;;3.90;;
11052;SDS011;55230;42.602;23.470;2024-03-25T05:34:03;9.65;;;4.93;;
11052;SDS011;55230;42.602;23.470;2024-03-25T05:36:57;7.47;;;4.68;;
11052;SDS011;55230;42.602;23.470;2024-03-25T05:42:44;7.95;;;4.95;;
11052;SDS011;55230;42.602;23.470;2024-03-25T05:59:42;7.35;;;4.97;;
11052;SDS011;55230;42.602;23.470;2024-03-25T06:02:57;8.77;;;4.88;;
11052;SDS011;55230;42.602;23.470;2024-03-25T06:06:11;7.65;;;5.03;;
11052;SDS011;55230;42.602;23.470;2024-03-25T06:25:59;8.27;;;5.45;;
11052;SDS011;55230;42.602;23.470;2024-03-25T06:28:24;7.65;;;5.90;;
11052;SDS011;55230;42.602;23.470;2024-03-25T06:30:50;10.20;;;6.15;;
11052;SDS011;55230;42.602;23.470;2024-03-25T06:33:34;14.75;;;6.35;;
11052;SDS011;55230;42.602;23.470;2024-03-25T06:36:18;7.65;;;5.05;;
11052;SDS011;55230;42.602;23.470;2024-03-25T06:38:44;11.38;;;6.28;;
11052;SDS011;55230;42.602;23.470;2024-03-25T06:41:10;9.80;;;6.78;;
11052;SDS011;55230;42.602;23.470;2024-03-25T06:43:36;6.70;;;4.53;;
11052;SDS011;55230;42.602;23.470;2024-03-25T06:46:03;8.52;;;6.03;;
11052;SDS011;55230;42.602;23.470;2024-03-25T06:48:28;7.97;;;5.38;;
11052;SDS011;55230;42.602;23.470;2024-03-25T06:50:54;8.45;;;5.40;;
11052;SDS011;55230;42.602;23.470;2024-03-25T06:53:23;8.85;;;6.25;;
11052;SDS011;55230;42.602;23.470;2024-03-25T06:58:19;7.40;;;5.30;;
11052;SDS011;55230;42.602;23.470;2024-03-25T07:00:44;6.63;;;4.70;;
11052;SDS011;55230;42.602;23.470;2024-03-25T07:03:10;7.88;;;5.95;;
11052;SDS011;55230;42.602;23.470;2024-03-25T07:05:35;9.65;;;6.55;;
11052;SDS011;55230;42.602;23.470;2024-03-25T07:08:01;12.63;;;5.90;;
11052;SDS011;55230;42.602;23.470;2024-03-25T07:10:26;8.55;;;5.13;;
11052;SDS011;55230;42.602;23.470;2024-03-25T07:12:51;7.18;;;5.18;;
11052;SDS011;55230;42.602;23.470;2024-03-25T07:15:17;10.55;;;5.90;;
11052;SDS011;55230;42.602;23.470;2024-03-25T07:17:42;8.60;;;5.38;;
11052;SDS011;55230;42.602;23.470;2024-03-25T07:20:08;8.57;;;4.97;;
11052;SDS011;55230;42.602;23.470;2024-03-25T07:22:33;7.65;;;4.95;;
11052;SDS011;55230;42.602;23.470;2024-03-25T07:24:59;7.53;;;5.18;;
11052;SDS011;55230;42.602;23.470;2024-03-25T07:27:24;7.20;;;4.72;;
11052;SDS011;55230;42.602;23.470;2024-03-25T07:29:49;9.27;;;7.18;;
11052;SDS011;55230;42.602;23.470;2024-03-25T07:32:16;8.93;;;6.63;;
11052;SDS011;55230;42.602;23.470;2024-03-25T07:34:41;6.70;;;5.53;;
11052;SDS011;55230;42.602;23.470;2024-03-25T07:37:07;5.95;;;4.45;;
11052;SDS011;55230;42.602;23.470;2024-03-25T07:39:32;7.55;;;5.45;;
11052;SDS011;55230;42.602;23.470;2024-03-25T07:41:57;9.13;;;5.47;;
11052;SDS011;55230;42.602;23.470;2024-03-25T07:44:24;9.77;;;5.65;;
11052;SDS011;55230;42.602;23.470;2024-03-25T07:46:50;6.53;;;5.03;;
11052;SDS011;55230;42.602;23.470;2024-03-25T07:49:15;8.63;;;5.32;;
11052;SDS011;55230;42.602;23.470;2024-03-25T07:51:41;6.75;;;5.53;;
11052;SDS011;55230;42.602;23.470;2024-03-25T07:54:06;6.28;;;5.45;;
11052;SDS011;55230;42.602;23.470;2024-03-25T07:56:32;7.65;;;6.30;;
11052;SDS011;55230;42.602;23.470;2024-03-25T07:59:02;8.30;;;5.90;;
11052;SDS011;55230;42.602;23.470;2024-03-25T08:01:27;9.77;;;6.03;;
11052;SDS011;55230;42.602;23.470;2024-03-25T08:03:52;6.57;;;5.03;;
11052;SDS011;55230;42.602;23.470;2024-03-25T08:06:18;7.85;;;5.60;;
11052;SDS011;55230;42.602;23.470;2024-03-25T08:08:46;7.18;;;5.70;;
11052;SDS011;55230;42.602;23.470;2024-03-25T08:11:12;7.82;;;5.30;;
11052;SDS011;55230;42.602;23.470;2024-03-25T08:13:37;5.50;;;3.88;;
11052;SDS011;55230;42.602;23.470;2024-03-25T08:16:02;7.93;;;5.78;;
11052;SDS011;55230;42.602;23.470;2024-03-25T08:18:28;6.03;;;4.65;;
11052;SDS011;55230;42.602;23.470;2024-03-25T08:20:54;6.25;;;4.57;;
11052;SDS011;55230;42.602;23.470;2024-03-25T08:23:19;7.78;;;5.57;;
11052;SDS011;55230;42.602;23.470;2024-03-25T08:25:44;6.28;;;5.03;;
11052;SDS011;55230;42.602;23.470;2024-03-25T08:42:49;4.97;;;4.35;;
11052;SDS011;55230;42.602;23.470;2024-03-25T08:55:33;6.45;;;4.35;;
11052;SDS011;55230;42.602;23.470;2024-03-25T08:57:58;4.45;;;4.03;;
11052;SDS011;55230;42.602;23.470;2024-03-25T09:00:27;5.32;;;4.18;;
11052;SDS011;55230;42.602;23.470;2024-03-25T09:02:56;6.03;;;4.68;;
11052;SDS011;55230;42.602;23.470;2024-03-25T09:05:21;4.13;;;3.67;;
11052;SDS011;55230;42.602;23.470;2024-03-25T09:07:50;4.47;;;3.63;;
11052;SDS011;55230;42.602;23.470;2024-03-25T09:10:19;5.82;;;5.18;;
11052;SDS011;55230;42.602;23.470;2024-03-25T09:13:04;5.95;;;4.85;;
11052;SDS011;55230;42.602;23.470;2024-03-25T09:15:29;4.82;;;3.88;;
11052;SDS011;55230;42.602;23.470;2024-03-25T09:17:55;4.88;;;4.05;;
11052;SDS011;55230;42.602;23.470;2024-03-25T09:20:20;5.38;;;4.45;;
11052;SDS011;55230;42.602;23.470;2024-03-25T09:22:46;4.85;;;3.97;;
11052;SDS011;55230;42.602;23.470;2024-03-25T09:25:15;7.03;;;4.45;;
11052;SDS011;55230;42.602;23.470;2024-03-25T09:27:50;6.70;;;4.68;;
11052;SDS011;55230;42.602;23.470;2024-03-25T09:30:17;6.30;;;4.25;;
11052;SDS011;55230;42.602;23.470;2024-03-25T09:32:44;15.13;;;5.88;;
11052;SDS011;55230;42.602;23.470;2024-03-25T09:35:09;5.63;;;4.30;;
11052;SDS011;55230;42.602;23.470;2024-03-25T09:37:36;7.40;;;5.57;;
11052;SDS011;55230;42.602;23.470;2024-03-25T09:40:02;5.75;;;3.53;;
11052;SDS011;55230;42.602;23.470;2024-03-25T09:42:44;22.88;;;6.20;;
11052;SDS011;55230;42.602;23.470;2024-03-25T09:45:13;7.38;;;3.92;;
11052;SDS011;55230;42.602;23.470;2024-03-25T09:47:41;6.45;;;3.95;;
11052;SDS011;55230;42.602;23.470;2024-03-25T09:50:10;5.13;;;4.63;;
11052;SDS011;55230;42.602;23.470;2024-03-25T09:52:38;4.53;;;4.13;;
11052;SDS011;55230;42.602;23.470;2024-03-25T09:55:04;5.63;;;3.83;;
11052;SDS011;55230;42.602;23.470;2024-03-25T09:57:30;5.35;;;4.80;;
11052;SDS011;55230;42.602;23.470;2024-03-25T09:59:55;5.50;;;4.63;;
11052;SDS011;55230;42.602;23.470;2024-03-25T10:02:23;4.05;;;3.65;;
11052;SDS011;55230;42.602;23.470;2024-03-25T10:04:51;5.05;;;4.43;;
11052;SDS011;55230;42.602;23.470;2024-03-25T10:07:23;5.72;;;3.95;;
11052;SDS011;55230;42.602;23.470;2024-03-25T10:09:49;8.18;;;5.07;;
11052;SDS011;55230;42.602;23.470;2024-03-25T10:12:15;5.20;;;4.13;;
11052;SDS011;55230;42.602;23.470;2024-03-25T10:14:40;5.88;;;3.33;;
11052;SDS011;55230;42.602;23.470;2024-03-25T10:17:06;4.03;;;3.72;;
11052;SDS011;55230;42.602;23.470;2024-03-25T10:19:35;5.60;;;3.88;;
11052;SDS011;55230;42.602;23.470;2024-03-25T10:22:07;6.05;;;4.00;;
11052;SDS011;55230;42.602;23.470;2024-03-25T10:24:43;5.70;;;3.63;;
11052;SDS011;55230;42.602;23.470;2024-03-25T10:27:31;3.92;;;3.53;;
11052;SDS011;55230;42.602;23.470;2024-03-25T10:29:55;3.58;;;3.17;;
11052;SDS011;55230;42.602;23.470;2024-03-25T10:32:21;4.47;;;3.38;;
11052;SDS011;55230;42.602;23.470;2024-03-25T10:34:49;3.75;;;3.35;;
11052;SDS011;55230;42.602;23.470;2024-03-25T10:37:15;4.40;;;3.88;;
11052;SDS011;55230;42.602;23.470;2024-03-25T10:39:49;4.65;;;3.42;;
11052;SDS011;55230;42.602;23.470;2024-03-25T10:42:18;4.07;;;3.58;;
11052;SDS011;55230;42.602;23.470;2024-03-25T10:44:45;5.03;;;3.22;;
11052;SDS011;55230;42.602;23.470;2024-03-25T10:47:13;4.85;;;3.90;;
11052;SDS011;55230;42.602;23.470;2024-03-25T10:50:03;2.58;;;2.38;;
11052;SDS011;55230;42.602;23.470;2024-03-25T10:52:34;3.13;;;2.83;;
11052;SDS011;55230;42.602;23.470;2024-03-25T10:55:02;5.70;;;3.83;;
11052;SDS011;55230;42.602;23.470;2024-03-25T10:57:28;3.42;;;2.65;;
11052;SDS011;55230;42.602;23.470;2024-03-25T10:59:55;3.95;;;3.47;;
11052;SDS011;55230;42.602;23.470;2024-03-25T11:02:22;2.58;;;2.38;;
11052;SDS011;55230;42.602;23.470;2024-03-25T11:04:48;5.00;;;2.53;;
11052;SDS011;55230;42.602;23.470;2024-03-25T11:07:16;2.88;;;2.67;;
11052;SDS011;55230;42.602;23.470;2024-03-25T11:09:42;2.90;;;2.70;;
11052;SDS011;55230;42.602;23.470;2024-03-25T11:12:11;2.47;;;2.20;;
11052;SDS011;55230;42.602;23.470;2024-03-25T11:14:37;3.03;;;2.83;;
11052;SDS011;55230;42.602;23.470;2024-03-25T11:17:13;3.08;;;2.88;;
11052;SDS011;55230;42.602;23.470;2024-03-25T11:19:40;2.72;;;2.53;;
11052;SDS011;55230;42.602;23.470;2024-03-25T11:22:09;2.38;;;2.17;;
11052;SDS011;55230;42.602;23.470;2024-03-25T11:24:36;3.22;;;2.72;;
11052;SDS011;55230;42.602;23.470;2024-03-25T11:27:02;5.25;;;2.58;;
11052;SDS011;55230;42.602;23.470;2024-03-25T11:29:31;2.47;;;2.30;;
11052;SDS011;55230;42.602;23.470;2024-03-25T11:31:56;2.88;;;2.58;;
11052;SDS011;55230;42.602;23.470;2024-03-25T11:34:28;2.85;;;2.65;;
11052;SDS011;55230;42.602;23.470;2024-03-25T11:36:53;2.58;;;2.40;;
11052;SDS011;55230;42.602;23.470;2024-03-25T11:39:21;4.07;;;3.80;;
11052;SDS011;55230;42.602;23.470;2024-03-25T11:41:47;4.05;;;2.80;;
11052;SDS011;55230;42.602;23.470;2024-03-25T11:44:13;2.75;;;2.55;;
11052;SDS011;55230;42.602;23.470;2024-03-25T11:46:39;2.28;;;2.08;;
11052;SDS011;55230;42.602;23.470;2024-03-25T11:49:05;2.60;;;1.88;;
11052;SDS011;55230;42.602;23.470;2024-03-25T11:51:33;2.33;;;2.13;;
11052;SDS011;55230;42.602;23.470;2024-03-25T11:53:58;2.10;;;2.00;;
11052;SDS011;55230;42.602;23.470;2024-03-25T11:56:24;2.45;;;2.20;;
11052;SDS011;55230;42.602;23.470;2024-03-25T11:58:51;2.17;;;1.95;;
11052;SDS011;55230;42.602;23.470;2024-03-25T12:01:16;2.25;;;1.60;;
11052;SDS011;55230;42.602;23.470;2024-03-25T12:03:41;2.20;;;2.08;;
11052;SDS011;55230;42.602;23.470;2024-03-25T12:06:07;2.25;;;2.05;;
11052;SDS011;55230;42.602;23.470;2024-03-25T12:08:32;5.28;;;4.20;;
11052;SDS011;55230;42.602;23.470;2024-03-25T12:11:01;2.95;;;2.75;;
11052;SDS011;55230;42.602;23.470;2024-03-25T12:13:45;3.75;;;3.00;;
11052;SDS011;55230;42.602;23.470;2024-03-25T12:16:10;2.53;;;2.35;;
11052;SDS011;55230;42.602;23.470;2024-03-25T12:18:36;3.65;;;3.35;;
11052;SDS011;55230;42.602;23.470;2024-03-25T12:21:06;3.45;;;3.15;;
11052;SDS011;55230;42.602;23.470;2024-03-25T12:23:32;3.75;;;3.38;;
11052;SDS011;55230;42.602;23.470;2024-03-25T12:26:01;2.45;;;2.25;;
11052;SDS011;55230;42.602;23.470;2024-03-25T12:28:28;3.05;;;2.42;;
11052;SDS011;55230;42.602;23.470;2024-03-25T12:30:54;3.05;;;2.75;;
11052;SDS011;55230;42.602;23.470;2024-03-25T12:33:23;11.25;;;2.20;;
11052;SDS011;55230;42.602;23.470;2024-03-25T12:35:49;2.38;;;2.17;;
11052;SDS011;55230;42.602;23.470;2024-03-25T12:38:22;3.22;;;1.70;;
11052;SDS011;55230;42.602;23.470;2024-03-25T12:41:05;2.67;;;2.38;;
11052;SDS011;55230;42.602;23.470;2024-03-25T12:43:35;2.40;;;2.20;;
11052;SDS011;55230;42.602;23.470;2024-03-25T12:46:02;5.10;;;3.38;;
11052;SDS011;55230;42.602;23.470;2024-03-25T12:48:29;2.25;;;2.05;;
11052;SDS011;55230;42.602;23.470;2024-03-25T12:50:54;2.30;;;2.13;;
11052;SDS011;55230;42.602;23.470;2024-03-25T12:53:20;2.65;;;2.42;;
11052;SDS011;55230;42.602;23.470;2024-03-25T12:55:46;2.92;;;2.00;;
11052;SDS011;55230;42.602;23.470;2024-03-25T12:58:11;5.70;;;3.53;;
11052;SDS011;55230;42.602;23.470;2024-03-25T13:00:37;7.57;;;6.88;;
11052;SDS011;55230;42.602;23.470;2024-03-25T13:03:03;5.30;;;4.80;;
11052;SDS011;55230;42.602;23.470;2024-03-25T13:05:33;3.75;;;3.45;;
11052;SDS011;55230;42.602;23.470;2024-03-25T13:07:59;4.85;;;4.45;;
11052;SDS011;55230;42.602;23.470;2024-03-25T13:10:25;3.03;;;2.78;;
11052;SDS011;55230;42.602;23.470;2024-03-25T13:12:51;5.95;;;4.13;;
11052;SDS011;55230;42.602;23.470;2024-03-25T13:15:17;2.85;;;2.65;;
11052;SDS011;55230;42.602;23.470;2024-03-25T13:17:43;2.25;;;2.05;;
11052;SDS011;55230;42.602;23.470;2024-03-25T13:20:08;6.18;;;2.70;;
11052;SDS011;55230;42.602;23.470;2024-03-25T13:22:34;2.20;;;2.10;;
11052;SDS011;55230;42.602;23.470;2024-03-25T13:25:00;2.80;;;2.00;;
11052;SDS011;55230;42.602;23.470;2024-03-25T13:27:25;2.63;;;2.42;;
11052;SDS011;55230;42.602;23.470;2024-03-25T13:29:51;2.95;;;1.55;;
11052;SDS011;55230;42.602;23.470;2024-03-25T13:32:18;2.22;;;2.00;;
11052;SDS011;55230;42.602;23.470;2024-03-25T13:34:44;1.52;;;1.42;;
11052;SDS011;55230;42.602;23.470;2024-03-25T13:37:09;2.42;;;2.33;;
11052;SDS011;55230;42.602;23.470;2024-03-25T13:39:35;2.47;;;2.30;;
11052;SDS011;55230;42.602;23.470;2024-03-25T13:42:00;4.88;;;3.20;;
11052;SDS011;55230;42.602;23.470;2024-03-25T13:44:26;1.70;;;1.60;;
11052;SDS011;55230;42.602;23.470;2024-03-25T13:46:51;1.92;;;1.83;;
11052;SDS011;55230;42.602;23.470;2024-03-25T13:49:16;2.53;;;2.33;;
11052;SDS011;55230;42.602;23.470;2024-03-25T13:51:43;6.40;;;1.80;;
11052;SDS011;55230;42.602;23.470;2024-03-25T13:54:09;2.90;;;2.08;;
11052;SDS011;55230;42.602;23.470;2024-03-25T13:56:34;1.75;;;1.65;;
11052;SDS011;55230;42.602;23.470;2024-03-25T13:58:59;3.25;;;1.42;;
11052;SDS011;55230;42.602;23.470;2024-03-25T14:01:25;1.73;;;1.63;;
11052;SDS011;55230;42.602;23.470;2024-03-25T14:03:50;1.42;;;1.33;;
11052;SDS011;55230;42.602;23.470;2024-03-25T14:06:16;10.25;;;2.88;;
11052;SDS011;55230;42.602;23.470;2024-03-25T14:08:41;3.13;;;2.05;;
11052;SDS011;55230;42.602;23.470;2024-03-25T14:11:07;5.80;;;1.80;;
11052;SDS011;55230;42.602;23.470;2024-03-25T14:13:33;1.73;;;1.63;;
11052;SDS011;55230;42.602;23.470;2024-03-25T14:15:59;1.98;;;1.52;;
11052;SDS011;55230;42.602;23.470;2024-03-25T14:18:24;1.83;;;1.63;;
11052;SDS011;55230;42.602;23.470;2024-03-25T14:20:51;1.40;;;1.30;;
11052;SDS011;55230;42.602;23.470;2024-03-25T14:23:17;4.07;;;1.85;;
11052;SDS011;55230;42.602;23.470;2024-03-25T14:25:42;2.13;;;1.48;;
11052;SDS011;55230;42.602;23.470;2024-03-25T14:28:07;1.85;;;1.25;;
11052;SDS011;55230;42.602;23.470;2024-03-25T14:30:33;1.45;;;1.35;;
11052;SDS011;55230;42.602;23.470;2024-03-25T14:32:58;1.52;;;1.42;;
11052;SDS011;55230;42.602;23.470;2024-03-25T14:35:24;0.70;;;0.70;;
11052;SDS011;55230;42.602;23.470;2024-03-25T14:37:49;1.00;;;1.00;;
11052;SDS011;55230;42.602;23.470;2024-03-25T14:40:15;1.15;;;1.02;;
11052;SDS011;55230;42.602;23.470;2024-03-25T14:42:42;2.58;;;1.95;;
11052;SDS011;55230;42.602;23.470;2024-03-25T14:45:08;0.80;;;0.80;;
11052;SDS011;55230;42.602;23.470;2024-03-25T14:47:33;1.92;;;1.73;;
11052;SDS011;55230;42.602;23.470;2024-03-25T14:49:59;1.75;;;1.20;;
11052;SDS011;55230;42.602;23.470;2024-03-25T14:52:24;0.93;;;0.93;;
11052;SDS011;55230;42.602;23.470;2024-03-25T14:54:50;1.83;;;0.90;;
11052;SDS011;55230;42.602;23.470;2024-03-25T14:57:16;1.35;;;1.33;;
11052;SDS011;55230;42.602;23.470;2024-03-25T14:59:42;2.78;;;2.55;;
11052;SDS011;55230;42.602;23.470;2024-03-25T15:02:07;6.65;;;4.40;;
11052;SDS011;55230;42.602;23.470;2024-03-25T15:04:33;1.17;;;1.08;;
11052;SDS011;55230;42.602;23.470;2024-03-25T15:06:58;0.98;;;0.90;;
11052;SDS011;55230;42.602;23.470;2024-03-25T15:09:24;1.98;;;0.95;;
11052;SDS011;55230;42.602;23.470;2024-03-25T15:11:49;1.25;;;1.15;;
11052;SDS011;55230;42.602;23.470;2024-03-25T15:14:15;2.00;;;1.63;;
11052;SDS011;55230;42.602;23.470;2024-03-25T15:16:40;1.67;;;1.58;;
11052;SDS011;55230;42.602;23.470;2024-03-25T15:19:05;1.13;;;1.02;;
11052;SDS011;55230;42.602;23.470;2024-03-25T15:21:33;1.80;;;1.33;;
11052;SDS011;55230;42.602;23.470;2024-03-25T15:23:58;2.60;;;1.70;;
11052;SDS011;55230;42.602;23.470;2024-03-25T15:26:24;1.48;;;1.38;;
11052;SDS011;55230;42.602;23.470;2024-03-25T15:28:49;1.55;;;1.45;;
11052;SDS011;55230;42.602;23.470;2024-03-25T15:31:15;1.40;;;1.30;;
11052;SDS011;55230;42.602;23.470;2024-03-25T15:33:41;2.20;;;1.60;;
11052;SDS011;55230;42.602;23.470;2024-03-25T15:36:06;1.45;;;1.35;;
11052;SDS011;55230;42.602;23.470;2024-03-25T15:38:32;1.88;;;1.70;;
11052;SDS011;55230;42.602;23.470;2024-03-25T15:40:57;2.28;;;1.60;;
11052;SDS011;55230;42.602;23.470;2024-03-25T15:43:23;1.58;;;1.48;;
11052;SDS011;55230;42.602;23.470;2024-03-25T15:45:55;1.90;;;1.80;;
11052;SDS011;55230;42.602;23.470;2024-03-25T15:48:21;2.75;;;1.88;;
11052;SDS011;55230;42.602;23.470;2024-03-25T16:15:24;2.10;;;1.90;;
11052;SDS011;55230;42.602;23.470;2024-03-25T16:18:11;1.73;;;1.63;;
11052;SDS011;55230;42.602;23.470;2024-03-25T16:20:36;3.17;;;1.98;;
11052;SDS011;55230;42.602;23.470;2024-03-25T16:23:03;7.72;;;4.38;;
11052;SDS011;55230;42.602;23.470;2024-03-25T16:25:28;5.63;;;4.88;;
11052;SDS011;55230;42.602;23.470;2024-03-25T16:27:54;3.05;;;2.42;;